Time;durP1;ratioP1;P1;durP2;ratioP2;P2;SDS_P1;SDS_P2;PMS_P1;PMS_P2;Temp;Humidity;BMP_temperature;BMP_pressure;BME280_temperature;BME280_humidity;BME280_pressure;Samples;Min_cycle;Max_cycle;Signal;HPM_P1;HPM_P2
2022/11/10 00:00:37;;;;;;;4.57;1.25;;;12.90;99.90;;;;;;10461446;28;20056;-63
2022/11/10 00:05:38;;;;;;;7.32;1.42;;;12.90;99.90;;;;;;10464635;28;20064;-63
2022/11/10 00:10:56;;;;;;;5.22;1.17;;;12.80;99.90;;;;;;10460315;28;20045;-63
2022/11/10 00:21:24;;;;;;;3.90;1.30;;;12.80;99.90;;;;;;10457260;28;20122;-63
2022/11/10 00:26:25;;;;;;;4.00;1.20;;;12.80;99.90;;;;;;10460479;28;20112;-63
2022/11/10 00:31:27;;;;;;;3.17;1.13;;;12.80;99.90;;;;;;10458484;28;20052;-63
2022/11/10 00:36:28;;;;;;;2.67;1.20;;;12.80;99.90;;;;;;10458112;28;20033;-63
2022/11/10 00:41:29;;;;;;;4.50;1.30;;;12.80;99.90;;;;;;10460577;28;20033;-63
2022/11/10 00:46:30;;;;;;;3.72;1.40;;;12.80;99.90;;;;;;10456782;28;20516;-63
2022/11/10 00:51:31;;;;;;;4.00;1.30;;;12.80;99.90;;;;;;10460925;28;20090;-63
2022/11/10 00:56:32;;;;;;;5.57;1.50;;;12.80;99.90;;;;;;10462020;28;20451;-63
2022/11/10 01:01:32;;;;;;;12.13;1.40;;;12.80;99.90;;;;;;10457823;28;20041;-63
2022/11/10 01:06:33;;;;;;;3.47;1.42;;;12.70;99.90;;;;;;10453687;28;20031;-63
2022/11/10 01:11:34;;;;;;;5.28;1.33;;;12.70;99.90;;;;;;10461780;28;20039;-65
2022/11/10 01:16:34;;;;;;;3.45;1.08;;;12.70;99.90;;;;;;10457776;28;20040;-63
2022/11/10 01:21:35;;;;;;;4.25;1.20;;;12.70;99.90;;;;;;10452459;28;20045;-63
2022/11/10 01:26:36;;;;;;;3.40;1.00;;;12.70;99.90;;;;;;10456150;28;20417;-63
2022/11/10 01:31:37;;;;;;;3.83;1.10;;;12.70;99.90;;;;;;10459228;28;20155;-63
2022/11/10 01:36:37;;;;;;;4.53;1.70;;;12.70;99.90;;;;;;10452511;28;20036;-63
2022/11/10 01:41:38;;;;;;;4.78;1.30;;;12.70;99.90;;;;;;10458838;28;20064;-64
2022/11/10 01:46:39;;;;;;;3.90;1.40;;;12.70;99.90;;;;;;10448880;28;20154;-64
2022/11/10 01:51:55;;;;;;;2.25;1.20;;;12.70;99.90;;;;;;10449869;28;20041;-64
2022/11/10 01:57:04;;;;;;;3.47;1.25;;;12.60;99.90;;;;;;10450601;28;20107;-64
2022/11/10 02:02:22;;;;;;;3.85;1.27;;;12.60;99.90;;;;;;10458019;28;20351;-63
2022/11/10 02:07:23;;;;;;;4.75;1.63;;;12.60;99.90;;;;;;10450299;28;20043;-63
2022/11/10 02:12:36;;;;;;;3.88;1.05;;;12.60;99.90;;;;;;10454782;28;20033;-63
2022/11/10 02:17:37;;;;;;;6.68;1.30;;;12.60;99.90;;;;;;10456767;28;20029;-64
2022/11/10 02:22:38;;;;;;;4.90;1.10;;;12.60;99.90;;;;;;10452676;28;20034;-64
2022/11/10 02:27:39;;;;;;;5.10;1.50;;;12.60;99.90;;;;;;10456371;28;20025;-64
2022/11/10 02:32:39;;;;;;;3.13;1.15;;;12.60;99.90;;;;;;10454932;28;20035;-64
2022/11/10 02:37:40;;;;;;;8.13;1.45;;;12.60;99.90;;;;;;10453301;28;20058;-63
2022/11/10 02:42:41;;;;;;;4.03;1.45;;;12.60;99.90;;;;;;10454118;28;20404;-63
2022/11/10 02:47:41;;;;;;;3.42;1.50;;;12.60;99.90;;;;;;10455051;28;20049;-64
2022/11/10 02:52:42;;;;;;;3.03;1.20;;;12.60;99.90;;;;;;10456386;28;20044;-63
2022/11/10 02:57:43;;;;;;;6.18;1.30;;;12.60;99.90;;;;;;10453502;28;20022;-64
2022/11/10 03:02:43;;;;;;;4.45;1.70;;;12.60;99.90;;;;;;10457669;28;20128;-63
2022/11/10 03:07:44;;;;;;;7.85;1.85;;;12.60;99.90;;;;;;10451270;28;20112;-63
2022/11/10 03:12:45;;;;;;;4.55;1.40;;;12.60;99.90;;;;;;10450396;28;20044;-63
2022/11/10 03:17:46;;;;;;;3.17;1.42;;;12.60;99.90;;;;;;10458222;28;20360;-63
2022/11/10 03:22:47;;;;;;;3.83;1.90;;;12.60;99.90;;;;;;10455126;28;20033;-64
2022/11/10 03:27:48;;;;;;;6.10;1.95;;;12.60;99.90;;;;;;10450943;28;21328;-63
2022/11/10 03:32:48;;;;;;;3.92;1.40;;;12.50;99.90;;;;;;10447666;28;20048;-63
2022/11/10 03:37:49;;;;;;;5.63;1.33;;;12.50;99.90;;;;;;10451410;28;20044;-63
2022/11/10 03:42:50;;;;;;;6.47;1.83;;;12.50;99.90;;;;;;10453366;28;20028;-62
2022/11/10 03:47:50;;;;;;;5.60;2.17;;;12.50;99.90;;;;;;10455079;28;20185;-63
2022/11/10 03:52:51;;;;;;;3.95;1.73;;;12.50;99.90;;;;;;10451765;28;20035;-63
2022/11/10 03:57:52;;;;;;;4.68;1.50;;;12.50;99.90;;;;;;10450879;28;20029;-63
2022/11/10 04:02:55;;;;;;;5.38;1.80;;;12.50;99.90;;;;;;10450831;28;20048;-63
2022/11/10 04:18:38;;;;;;;7.53;1.80;;;12.50;99.90;;;;;;10451335;28;20090;-65
2022/11/10 04:23:38;;;;;;;4.75;1.98;;;12.50;99.90;;;;;;10454392;28;20035;-64
2022/11/10 04:28:40;;;;;;;5.68;1.58;;;12.50;99.90;;;;;;10448572;28;20032;-63
2022/11/10 04:33:41;;;;;;;6.00;1.90;;;12.50;99.90;;;;;;10453596;28;20043;-64
2022/11/10 04:38:42;;;;;;;5.63;1.80;;;12.50;99.90;;;;;;10449826;28;20098;-64
2022/11/10 04:43:43;;;;;;;4.80;1.50;;;12.50;99.90;;;;;;10460498;28;20043;-67
2022/11/10 04:48:44;;;;;;;6.57;2.13;;;12.50;99.90;;;;;;10460977;28;20090;-64
2022/11/10 04:53:45;;;;;;;4.50;1.65;;;12.50;99.90;;;;;;10457577;28;20500;-63
2022/11/10 04:58:46;;;;;;;4.85;1.80;;;12.50;99.90;;;;;;10459350;28;20021;-63
2022/11/10 05:03:47;;;;;;;5.93;1.90;;;12.40;99.90;;;;;;10457320;28;20108;-63
2022/11/10 05:08:48;;;;;;;5.00;1.52;;;12.50;99.90;;;;;;10457371;28;20025;-63
2022/11/10 05:13:49;;;;;;;4.93;1.70;;;12.40;99.90;;;;;;10456786;28;20122;-63
2022/11/10 05:18:53;;;;;;;5.72;2.03;;;12.40;99.90;;;;;;10454777;28;20021;-63
2022/11/10 05:23:53;;;;;;;5.53;1.55;;;12.40;99.90;;;;;;10456412;28;20090;-63
2022/11/10 05:28:54;;;;;;;4.57;2.00;;;12.40;99.90;;;;;;10456013;28;20039;-63
2022/11/10 05:33:55;;;;;;;5.70;1.70;;;12.40;99.90;;;;;;10450517;28;20036;-63
2022/11/10 05:38:55;;;;;;;4.93;2.35;;;12.40;99.90;;;;;;10455518;28;21476;-64
2022/11/10 05:43:56;;;;;;;8.52;2.28;;;12.40;99.90;;;;;;10459232;28;20029;-63
2022/11/10 05:48:56;;;;;;;3.20;1.67;;;12.40;99.90;;;;;;10456498;28;20055;-63
2022/11/10 05:53:57;;;;;;;8.52;2.10;;;12.40;99.90;;;;;;10454462;28;20573;-63
2022/11/10 05:58:58;;;;;;;4.72;1.85;;;12.40;99.90;;;;;;10456075;28;20112;-63
2022/11/10 06:03:59;;;;;;;5.70;1.90;;;12.40;99.90;;;;;;10453973;28;20036;-63
2022/11/10 06:08:59;;;;;;;7.18;2.30;;;12.40;99.90;;;;;;10457465;28;20029;-63
2022/11/10 06:14:00;;;;;;;9.32;2.88;;;12.40;99.90;;;;;;10453240;28;20397;-64
2022/11/10 06:19:01;;;;;;;4.65;1.70;;;12.40;99.90;;;;;;10456584;28;20112;-63
2022/11/10 06:24:01;;;;;;;5.22;2.17;;;12.40;99.90;;;;;;10457991;28;20039;-63
2022/11/10 06:29:02;;;;;;;6.63;2.08;;;12.40;99.90;;;;;;10454494;28;20265;-63
2022/11/10 06:34:03;;;;;;;6.13;1.63;;;12.30;99.90;;;;;;10455980;28;20044;-63
2022/11/10 06:39:03;;;;;;;5.68;1.85;;;12.30;99.90;;;;;;10455286;28;20489;-63
2022/11/10 06:44:05;;;;;;;4.95;1.80;;;12.40;99.90;;;;;;10471081;28;20035;-63
2022/11/10 06:49:05;;;;;;;4.90;1.80;;;12.30;99.90;;;;;;10455844;28;20067;-63
2022/11/10 06:54:06;;;;;;;6.55;2.58;;;12.30;99.90;;;;;;10454359;28;20110;-63
2022/11/10 06:59:07;;;;;;;6.80;2.55;;;12.80;99.90;;;;;;10454247;28;20033;-63
2022/11/10 07:04:08;;;;;;;9.27;2.40;;;12.30;99.90;;;;;;10437843;28;20025;-63
2022/11/10 07:09:09;;;;;;;4.18;1.85;;;12.30;99.90;;;;;;10436135;28;20549;-63
2022/11/10 07:14:09;;;;;;;6.35;2.03;;;12.30;99.90;;;;;;10362279;28;20040;-63
2022/11/10 07:19:10;;;;;;;6.95;2.17;;;12.30;99.90;;;;;;10370499;28;20025;-63
2022/11/10 07:24:11;;;;;;;6.13;2.80;;;12.30;99.90;;;;;;10365573;28;20405;-63
2022/11/10 07:29:11;;;;;;;7.20;2.38;;;12.30;99.90;;;;;;10384510;28;20098;-63
2022/11/10 07:34:12;;;;;;;6.45;2.30;;;12.30;99.90;;;;;;10369438;28;20146;-62
2022/11/10 07:39:14;;;;;;;5.40;1.98;;;12.30;99.90;;;;;;10377562;28;20553;-63
2022/11/10 07:44:14;;;;;;;8.98;2.83;;;12.40;99.90;;;;;;10366541;28;20476;-64
2022/11/10 07:49:16;;;;;;;6.93;2.55;;;12.30;99.90;;;;;;10360386;28;20472;-64
2022/11/10 07:54:17;;;;;;;5.57;2.30;;;12.30;99.90;;;;;;10373030;28;20339;-64
2022/11/10 07:59:18;;;;;;;6.50;2.13;;;12.40;99.90;;;;;;10379860;28;20029;-64
2022/11/10 08:04:18;;;;;;;4.85;2.55;;;12.40;99.90;;;;;;10360615;28;20071;-63
2022/11/10 08:09:19;;;;;;;5.28;2.38;;;12.40;99.90;;;;;;10355750;28;20075;-63
2022/11/10 08:14:20;;;;;;;5.65;1.92;;;12.40;99.90;;;;;;10369157;28;20040;-67
2022/11/10 08:19:21;;;;;;;8.02;2.70;;;12.50;99.90;;;;;;10369344;28;20047;-63
2022/11/10 08:24:21;;;;;;;6.03;2.25;;;12.50;99.90;;;;;;10392352;28;20059;-64
2022/11/10 08:29:22;;;;;;;7.38;2.63;;;12.50;99.90;;;;;;10380147;28;20033;-63
2022/11/10 08:34:23;;;;;;;5.15;1.90;;;12.60;99.90;;;;;;10383896;28;20032;-66
2022/11/10 08:39:24;;;;;;;5.25;1.98;;;12.70;99.90;;;;;;10375281;28;20408;-63
2022/11/10 08:44:24;;;;;;;5.32;2.00;;;12.70;99.90;;;;;;10380127;28;20514;-65
2022/11/10 08:49:25;;;;;;;6.22;1.98;;;12.80;99.90;;;;;;10378640;28;20311;-63
2022/11/10 08:54:26;;;;;;;4.70;2.13;;;12.80;99.90;;;;;;10375811;28;20098;-62
2022/11/10 08:59:27;;;;;;;3.67;1.88;;;12.90;99.90;;;;;;10375998;28;20436;-63
2022/11/10 09:04:27;;;;;;;10.35;2.67;;;12.80;99.90;;;;;;10368234;28;20075;-66
2022/11/10 09:09:28;;;;;;;8.23;2.33;;;12.80;99.90;;;;;;10383694;28;20029;-65
2022/11/10 09:14:29;;;;;;;6.60;2.40;;;12.60;99.90;;;;;;10369113;28;20247;-63
2022/11/10 09:19:29;;;;;;;7.25;2.67;;;12.90;99.90;;;;;;10380335;28;20614;-63
2022/11/10 09:24:30;;;;;;;6.97;2.15;;;12.90;99.90;;;;;;10376789;28;20044;-62
2022/11/10 09:29:31;;;;;;;10.55;2.42;;;12.90;99.90;;;;;;10375684;28;20060;-67
2022/11/10 09:34:32;;;;;;;5.68;2.38;;;13.00;99.90;;;;;;10374942;28;20127;-64
2022/11/10 09:39:32;;;;;;;9.10;2.60;;;13.00;99.90;;;;;;10377450;28;20029;-64
2022/11/10 09:44:38;;;;;;;8.00;2.25;;;13.00;99.90;;;;;;10373865;28;20106;-63
2022/11/10 09:49:45;;;;;;;8.65;2.85;;;13.00;99.90;;;;;;10372182;28;20451;-63
2022/11/10 09:54:56;;;;;;;6.70;2.28;;;13.10;99.90;;;;;;10372623;28;20500;-65
2022/11/10 09:59:57;;;;;;;8.02;3.20;;;13.10;99.90;;;;;;10368078;28;20396;-63
2022/11/10 10:05:26;;;;;;;5.68;2.30;;;13.10;99.90;;;;;;10375603;28;20342;-62
2022/11/10 10:10:46;;;;;;;4.20;2.30;;;13.20;99.90;;;;;;10335060;28;20048;-64
2022/11/10 10:16:10;;;;;;;5.93;2.03;;;13.20;99.90;;;;;;10368354;28;20017;-63
2022/11/10 10:21:20;;;;;;;8.93;2.53;;;13.20;99.90;;;;;;10376735;28;20029;-63
2022/11/10 10:26:25;;;;;;;6.53;2.17;;;13.30;99.90;;;;;;10371709;28;20032;-63
2022/11/10 10:31:33;;;;;;;5.00;2.03;;;13.30;99.90;;;;;;10365246;28;20529;-62
2022/11/10 10:36:34;;;;;;;7.15;2.03;;;13.10;99.90;;;;;;10360779;28;20661;-63
2022/11/10 10:41:36;;;;;;;9.75;2.28;;;13.40;99.90;;;;;;10363943;28;20044;-63
2022/11/10 10:47:03;;;;;;;7.78;2.40;;;13.40;99.90;;;;;;10369515;28;20066;-62
2022/11/10 10:52:16;;;;;;;7.13;2.10;;;13.40;99.90;;;;;;10370347;28;20101;-64
2022/11/10 10:57:30;;;;;;;6.30;1.92;;;13.50;99.90;;;;;;10380314;28;20029;-62
2022/11/10 11:02:31;;;;;;;6.57;2.00;;;13.50;99.90;;;;;;10378674;28;20175;-64
2022/11/10 11:07:32;;;;;;;8.73;1.73;;;13.50;99.90;;;;;;10377804;28;20358;-63
2022/11/10 11:12:32;;;;;;;5.60;1.90;;;13.50;99.90;;;;;;10373456;28;20155;-65
2022/11/10 11:17:33;;;;;;;5.75;2.00;;;13.60;99.90;;;;;;10360138;28;20427;-65
2022/11/10 11:23:05;;;;;;;4.32;1.60;;;13.60;99.90;;;;;;10361189;28;20214;-63
2022/11/10 11:28:21;;;;;;;5.55;1.70;;;13.70;99.90;;;;;;10340225;28;20045;-65
2022/11/10 11:33:58;;;;;;;9.20;1.95;;;13.60;99.90;;;;;;10328986;22;20084;-62
2022/11/10 11:39:18;;;;;;;10.20;1.75;;;13.70;99.90;;;;;;10300583;28;20140;-63
2022/11/10 11:44:25;;;;;;;6.65;1.77;;;13.70;99.90;;;;;;10311694;28;20048;-62
2022/11/10 11:50:01;;;;;;;5.13;1.73;;;13.70;99.90;;;;;;10312234;28;20121;-63
2022/11/10 11:55:32;;;;;;;5.28;1.40;;;13.70;99.90;;;;;;10320125;28;20045;-63
2022/11/10 12:00:44;;;;;;;5.68;2.05;;;13.70;99.90;;;;;;10318233;28;21033;-62
2022/11/10 12:06:26;;;;;;;8.10;1.90;;;13.70;99.90;;;;;;10315398;28;20029;-62
2022/11/10 12:11:55;;;;;;;6.55;1.58;;;13.70;99.90;;;;;;10309777;28;21021;-65
2022/11/10 12:17:17;;;;;;;7.60;1.70;;;13.70;99.90;;;;;;10301628;28;20043;-61
2022/11/10 12:22:29;;;;;;;5.05;1.52;;;13.70;99.90;;;;;;10305446;28;20021;-62
2022/11/10 12:27:52;;;;;;;5.35;1.40;;;13.70;99.90;;;;;;10303793;28;20053;-63
2022/11/10 12:33:18;;;;;;;6.20;1.50;;;13.70;99.90;;;;;;10291055;28;20042;-68
2022/11/10 12:38:25;;;;;;;4.03;1.20;;;13.80;99.90;;;;;;10285973;28;20052;-61
2022/11/10 12:43:55;;;;;;;5.72;1.50;;;13.90;99.90;;;;;;10298432;28;20119;-61
2022/11/10 12:48:59;;;;;;;7.38;1.90;;;13.90;99.90;;;;;;10305299;28;20117;-61
2022/11/10 12:54:01;;;;;;;9.48;1.40;;;14.00;99.90;;;;;;10302135;28;20041;-61
2022/11/10 12:59:20;;;;;;;9.18;1.63;;;14.00;99.90;;;;;;10316724;28;20033;-61
2022/11/10 13:04:21;;;;;;;7.05;2.55;;;14.00;99.90;;;;;;10307084;28;20474;-61
2022/11/10 13:09:28;;;;;;;3.58;1.50;;;14.00;99.90;;;;;;10313918;28;20041;-62
2022/11/10 13:14:29;;;;;;;8.85;1.50;;;14.00;99.90;;;;;;10314070;28;20037;-61
2022/11/10 13:19:33;;;;;;;3.45;1.40;;;14.00;99.90;;;;;;10317294;28;20152;-62
2022/11/10 13:24:36;;;;;;;5.82;1.60;;;14.20;99.90;;;;;;10320150;28;20146;-62
2022/11/10 13:29:45;;;;;;;7.32;1.60;;;14.00;99.90;;;;;;10318940;28;20038;-62
2022/11/10 13:34:46;;;;;;;9.80;1.60;;;14.00;99.90;;;;;;10308085;28;20081;-62
2022/11/10 13:39:47;;;;;;;6.07;1.58;;;14.00;99.90;;;;;;10308311;28;20371;-62
2022/11/10 13:44:49;;;;;;;5.38;1.98;;;14.00;99.90;;;;;;10324361;28;20060;-64
2022/11/10 13:50:22;;;;;;;6.93;1.75;;;14.00;99.90;;;;;;10297684;28;20460;-62
2022/11/10 13:55:28;;;;;;;4.38;1.88;;;14.00;99.90;;;;;;10275336;28;20127;-62
2022/11/10 14:00:32;;;;;;;4.90;1.50;;;13.90;99.90;;;;;;10313786;28;20165;-63
2022/11/10 14:05:37;;;;;;;5.35;1.83;;;13.90;99.90;;;;;;10305905;28;20120;-61
2022/11/10 14:10:43;;;;;;;5.50;1.88;;;13.90;99.90;;;;;;10301919;28;20477;-62
2022/11/10 14:15:47;;;;;;;2.63;1.20;;;13.90;99.90;;;;;;10311868;28;20348;-61
2022/11/10 14:20:56;;;;;;;7.20;1.30;;;13.90;99.90;;;;;;10311961;28;20034;-61
2022/11/10 14:26:02;;;;;;;6.75;1.50;;;13.90;99.90;;;;;;10308381;28;20363;-61
2022/11/10 14:31:03;;;;;;;9.40;1.80;;;13.80;99.90;;;;;;10280567;28;20910;-61
2022/11/10 14:36:07;;;;;;;6.50;1.83;;;13.90;99.90;;;;;;10283723;28;20050;-62
2022/11/10 14:41:17;;;;;;;4.38;1.33;;;13.90;99.90;;;;;;10281837;28;20068;-61
2022/11/10 14:46:23;;;;;;;6.45;1.80;;;13.80;99.90;;;;;;10279204;28;20033;-61
2022/11/10 14:51:25;;;;;;;6.32;1.30;;;13.80;99.90;;;;;;10279710;28;20128;-62
2022/11/10 14:56:29;;;;;;;5.97;1.20;;;13.80;99.90;;;;;;10280287;28;20461;-61
2022/11/10 15:01:36;;;;;;;6.63;1.77;;;13.90;99.90;;;;;;10296023;28;20033;-62
2022/11/10 15:06:37;;;;;;;5.20;2.53;;;13.80;99.90;;;;;;10309621;28;20021;-61
2022/11/10 15:11:46;;;;;;;5.45;1.20;;;13.80;99.90;;;;;;10284637;28;20049;-61
2022/11/10 15:17:03;;;;;;;4.85;1.50;;;13.80;99.90;;;;;;10307393;28;20096;-61
2022/11/10 15:22:32;;;;;;;7.97;2.28;;;13.80;99.90;;;;;;10300827;28;20212;-62
2022/11/10 15:27:33;;;;;;;;;;;13.80;99.90;;;;;;10307928;28;20560;-61
2022/11/10 15:32:42;;;;;;;7.30;1.63;;;13.80;99.90;;;;;;10281187;28;19921;-61
2022/11/10 15:38:19;;;;;;;5.03;1.80;;;13.80;99.90;;;;;;10285227;28;20050;-61
2022/11/10 15:43:23;;;;;;;7.53;1.80;;;13.80;99.90;;;;;;10279375;28;20806;-61
2022/11/10 15:48:25;;;;;;;12.52;1.67;;;13.80;99.90;;;;;;10285094;28;20034;-62
2022/11/10 15:53:38;;;;;;;10.25;2.10;;;13.80;99.90;;;;;;10299457;28;20083;-62
2022/11/10 15:58:39;;;;;;;6.78;1.67;;;13.80;99.90;;;;;;10298152;28;20044;-63
2022/11/10 16:03:40;;;;;;;6.95;1.63;;;14.00;99.90;;;;;;10315873;28;20028;-63
2022/11/10 16:08:41;;;;;;;4.32;1.77;;;13.80;99.90;;;;;;10300690;28;20445;-62
2022/11/10 16:13:42;;;;;;;6.78;1.30;;;13.80;99.90;;;;;;10305941;28;20037;-63
2022/11/10 16:18:43;;;;;;;6.25;1.70;;;13.80;99.90;;;;;;10382563;28;20052;-62
2022/11/10 16:23:44;;;;;;;4.60;1.92;;;13.80;99.90;;;;;;10399607;28;20032;-63
2022/11/10 16:28:46;;;;;;;6.78;1.95;;;13.80;99.90;;;;;;10386842;28;20059;-64
2022/11/10 16:33:48;;;;;;;6.28;1.45;;;13.80;99.90;;;;;;10386820;28;20136;-64
2022/11/10 16:38:49;;;;;;;4.43;1.35;;;13.80;99.90;;;;;;10381057;28;20473;-64
2022/11/10 16:43:50;;;;;;;5.10;1.50;;;13.80;99.90;;;;;;10369556;28;20026;-64
2022/11/10 16:48:54;;;;;;;5.53;1.80;;;13.80;99.90;;;;;;10398459;28;20029;-63
2022/11/10 16:53:58;;;;;;;5.93;2.35;;;13.80;99.90;;;;;;10389752;28;20394;-63
2022/11/10 16:58:58;;;;;;;5.10;1.85;;;13.80;99.90;;;;;;10402831;28;20064;-63
2022/11/10 17:04:04;;;;;;;8.68;2.45;;;13.80;99.90;;;;;;10399736;28;20047;-63
2022/11/10 17:09:20;;;;;;;10.10;1.95;;;13.80;99.90;;;;;;10386515;28;20152;-64
2022/11/10 17:14:21;;;;;;;7.32;2.08;;;13.80;99.90;;;;;;10378485;28;20041;-63
2022/11/10 17:19:25;;;;;;;7.45;1.58;;;13.80;99.90;;;;;;10389646;28;20032;-63
2022/11/10 17:24:25;;;;;;;6.03;1.83;;;13.80;99.90;;;;;;10407222;28;20615;-63
2022/11/10 17:29:28;;;;;;;6.03;1.48;;;13.80;99.90;;;;;;10405644;28;20021;-62
2022/11/10 17:34:28;;;;;;;8.20;1.73;;;13.80;99.90;;;;;;10398680;28;20049;-62
2022/11/10 17:39:30;;;;;;;5.22;1.70;;;13.80;99.90;;;;;;10376465;28;20015;-64
2022/11/10 17:44:30;;;;;;;6.93;1.77;;;13.80;99.90;;;;;;10378486;28;20028;-63
2022/11/10 17:49:31;;;;;;;3.03;1.40;;;13.70;99.90;;;;;;10397126;28;20048;-63
2022/11/10 17:54:32;;;;;;;6.50;1.70;;;13.70;99.90;;;;;;10394485;28;20124;-63
2022/11/10 17:59:33;;;;;;;6.40;1.52;;;13.70;99.90;;;;;;10387229;28;20041;-63
2022/11/10 18:04:33;;;;;;;4.65;1.80;;;13.70;99.90;;;;;;10382707;28;20029;-62
2022/11/10 18:09:34;;;;;;;3.67;1.52;;;13.70;99.90;;;;;;10394416;28;20491;-65
2022/11/10 18:14:35;;;;;;;5.22;2.25;;;13.70;99.90;;;;;;10393154;28;20034;-63
2022/11/10 18:19:36;;;;;;;4.65;1.65;;;13.70;99.90;;;;;;10372577;28;20036;-63
2022/11/10 18:24:37;;;;;;;3.58;1.48;;;13.60;99.90;;;;;;10404446;28;20545;-63
2022/11/10 18:29:37;;;;;;;5.13;1.50;;;13.70;99.90;;;;;;10403901;28;20041;-63
2022/11/10 18:34:39;;;;;;;8.23;2.50;;;13.70;99.90;;;;;;10392088;28;20130;-62
2022/11/10 18:39:39;;;;;;;4.90;1.65;;;13.70;99.90;;;;;;10403132;28;20017;-63
2022/11/10 18:44:40;;;;;;;4.45;1.50;;;13.60;99.90;;;;;;10388895;28;20026;-63
2022/11/10 18:49:41;;;;;;;4.55;1.85;;;13.60;99.90;;;;;;10404157;28;20033;-63
2022/11/10 18:54:42;;;;;;;2.95;1.45;;;13.60;99.90;;;;;;10402852;28;20033;-63
2022/11/10 18:59:42;;;;;;;5.35;1.88;;;13.60;99.90;;;;;;10377860;28;20487;-63
2022/11/10 19:04:43;;;;;;;4.65;1.58;;;13.60;99.90;;;;;;10403808;28;20604;-62
2022/11/10 19:09:44;;;;;;;4.32;1.55;;;13.60;99.90;;;;;;10414887;28;20080;-63
2022/11/10 19:14:45;;;;;;;6.88;1.50;;;13.50;99.90;;;;;;10402172;28;20395;-63
2022/11/10 19:19:45;;;;;;;4.20;1.70;;;13.50;99.90;;;;;;10408573;28;20414;-64
2022/11/10 19:24:46;;;;;;;3.47;1.52;;;13.50;99.90;;;;;;10404872;28;20462;-63
2022/11/10 19:29:47;;;;;;;6.07;2.40;;;13.50;99.90;;;;;;10411522;28;20021;-63
2022/11/10 19:34:48;;;;;;;4.50;1.70;;;13.50;99.90;;;;;;10409486;28;20527;-63
2022/11/10 19:39:48;;;;;;;4.10;2.10;;;13.40;99.90;;;;;;10405402;28;20066;-63
2022/11/10 19:44:49;;;;;;;5.30;1.90;;;13.40;99.90;;;;;;10409988;28;20021;-63
2022/11/10 19:49:49;;;;;;;6.00;2.00;;;13.40;99.90;;;;;;10402594;28;20034;-63
2022/11/10 19:54:50;;;;;;;6.47;1.65;;;13.40;99.90;;;;;;10398068;28;20037;-63
2022/11/10 19:59:51;;;;;;;4.40;1.88;;;13.40;99.90;;;;;;10412097;28;20045;-63
2022/11/10 20:10:11;;;;;;;8.02;2.03;;;13.40;99.90;;;;;;10394242;28;20029;-66
2022/11/10 20:15:12;;;;;;;3.47;2.00;;;13.40;99.90;;;;;;10407123;28;20441;-62
2022/11/10 20:20:13;;;;;;;6.47;2.50;;;13.30;99.90;;;;;;10414967;28;20048;-63
2022/11/10 20:25:14;;;;;;;4.57;1.80;;;13.30;99.90;;;;;;10415150;28;20482;-63
2022/11/10 20:30:15;;;;;;;3.78;1.58;;;13.30;99.90;;;;;;10409249;28;20021;-62
2022/11/10 20:35:16;;;;;;;4.85;1.70;;;13.30;99.90;;;;;;10411759;28;20050;-66
2022/11/10 20:40:16;;;;;;;5.25;1.35;;;13.30;99.90;;;;;;10415579;28;20041;-64
2022/11/10 20:45:17;;;;;;;2.85;1.50;;;13.30;99.90;;;;;;10396891;28;20025;-63
2022/11/10 20:50:18;;;;;;;2.90;1.63;;;13.30;99.90;;;;;;10404082;28;20029;-66
2022/11/10 20:55:19;;;;;;;4.85;1.65;;;13.30;99.90;;;;;;10405677;28;20029;-63
2022/11/10 21:00:20;;;;;;;5.18;1.70;;;13.20;99.90;;;;;;10386705;28;20021;-62
2022/11/10 21:05:20;;;;;;;3.83;1.48;;;13.20;99.90;;;;;;10393751;28;20022;-63
2022/11/10 21:10:21;;;;;;;4.50;2.13;;;13.20;99.90;;;;;;10401522;28;20041;-63
2022/11/10 21:15:22;;;;;;;4.47;1.80;;;13.20;99.90;;;;;;10402347;28;20021;-64
2022/11/10 21:20:22;;;;;;;4.00;1.58;;;13.20;99.90;;;;;;10405967;28;20077;-63
2022/11/10 21:25:23;;;;;;;2.47;1.45;;;13.20;99.90;;;;;;10393503;28;20033;-63
2022/11/10 21:30:24;;;;;;;3.85;1.48;;;13.20;99.90;;;;;;10384880;28;20021;-63
2022/11/10 21:35:25;;;;;;;4.63;1.65;;;13.20;99.90;;;;;;10404975;28;20518;-63
2022/11/10 21:40:26;;;;;;;4.35;1.75;;;13.20;99.90;;;;;;10410308;28;20022;-64
2022/11/10 21:45:26;;;;;;;4.15;1.70;;;13.20;99.90;;;;;;10382471;28;20042;-64
2022/11/10 21:50:27;;;;;;;4.60;1.90;;;13.20;99.90;;;;;;10395832;28;20036;-64
2022/11/10 21:55:28;;;;;;;3.92;1.73;;;13.20;99.90;;;;;;10407711;28;20026;-64
2022/11/10 22:00:29;;;;;;;3.28;1.30;;;13.20;99.90;;;;;;10407537;28;20064;-63
2022/11/10 22:05:32;;;;;;;3.95;1.80;;;13.20;99.90;;;;;;10373384;28;20579;-63
2022/11/10 22:21:11;;;;;;;5.68;1.90;;;13.10;99.90;;;;;;10404915;28;20124;-63
2022/11/10 22:26:13;;;;;;;2.40;1.60;;;13.20;99.90;;;;;;10396256;28;20032;-63
2022/11/10 22:31:13;;;;;;;5.78;2.42;;;13.10;99.90;;;;;;10408444;28;20088;-63
2022/11/10 22:36:16;;;;;;;3.67;1.98;;;13.10;99.90;;;;;;10390127;28;20084;-63
2022/11/10 22:46:39;;;;;;;4.97;2.20;;;13.10;99.90;;;;;;10377615;28;20030;-63
2022/11/10 22:51:41;;;;;;;3.13;1.70;;;13.10;99.90;;;;;;10371514;28;20037;-64
2022/11/10 22:56:43;;;;;;;5.15;2.40;;;13.10;99.90;;;;;;10395079;28;20538;-64
2022/11/10 23:01:43;;;;;;;4.78;2.05;;;13.10;99.90;;;;;;10399021;28;20117;-64
2022/11/10 23:06:44;;;;;;;5.03;2.30;;;13.10;99.90;;;;;;10389518;28;20029;-64
2022/11/10 23:11:45;;;;;;;4.95;2.20;;;13.00;99.90;;;;;;10400465;28;20040;-63
2022/11/10 23:16:46;;;;;;;5.47;2.28;;;13.00;99.90;;;;;;10392753;28;20371;-64
2022/11/10 23:21:47;;;;;;;5.57;2.50;;;13.00;99.90;;;;;;10405360;28;20033;-64
2022/11/10 23:26:47;;;;;;;5.68;2.63;;;13.00;99.90;;;;;;10401184;28;20034;-64
2022/11/10 23:31:48;;;;;;;5.40;2.85;;;13.00;99.90;;;;;;10387863;28;20506;-65
2022/11/10 23:36:49;;;;;;;5.53;2.72;;;13.00;99.90;;;;;;10401112;28;20045;-64
2022/11/10 23:41:49;;;;;;;6.68;3.20;;;13.00;99.90;;;;;;10392600;28;20083;-64
2022/11/10 23:46:50;;;;;;;7.70;2.80;;;13.00;99.90;;;;;;10407396;28;20730;-65
2022/11/10 23:51:51;;;;;;;6.80;3.05;;;13.00;99.90;;;;;;10422042;28;21083;-64
2022/11/10 23:56:51;;;;;;;5.07;2.78;;;13.00;99.90;;;;;;10391461;28;20048;-64
